Time;durP1;ratioP1;P1;durP2;ratioP2;P2;SDS_P1;SDS_P2;PMS_P1;PMS_P2;Temp;Humidity;BMP_temperature;BMP_pressure;BME280_temperature;BME280_humidity;BME280_pressure;Samples;Min_cycle;Max_cycle;Signal;HPM_P1;HPM_P2
2023/06/23 00:01:31;;;;;;;4.03;2.70;;;18.00;99.90;;;;;;5096865;27;20038;-79
2023/06/23 00:03:58;;;;;;;3.85;2.97;;;18.00;99.90;;;;;;5113236;28;20118;-79
2023/06/23 00:06:25;;;;;;;4.38;2.90;;;18.00;99.90;;;;;;5113519;28;20042;-78
2023/06/23 00:08:51;;;;;;;3.53;2.42;;;17.90;99.90;;;;;;5096272;27;20039;-79
2023/06/23 00:11:17;;;;;;;;;;;17.90;99.90;;;;;;5096681;27;20551;-78
2023/06/23 00:13:43;;;;;;;4.97;3.80;;;17.90;99.90;;;;;;5088955;27;19923;-78
2023/06/23 00:16:08;;;;;;;3.97;2.85;;;17.90;99.90;;;;;;5096253;27;20125;-79
2023/06/23 00:18:35;;;;;;;;;;;17.90;99.90;;;;;;5147823;27;20043;-79
2023/06/23 00:21:02;;;;;;;3.53;2.63;;;17.90;99.90;;;;;;5113480;28;19968;-79
2023/06/23 00:23:30;;;;;;;3.15;2.47;;;17.90;99.90;;;;;;5113163;28;20050;-79
2023/06/23 00:25:56;;;;;;;2.92;2.20;;;17.90;99.90;;;;;;5095961;28;20046;-79
2023/06/23 00:28:22;;;;;;;2.42;1.80;;;17.90;99.90;;;;;;5110583;28;20561;-80
2023/06/23 00:30:49;;;;;;;;;;;17.90;99.90;;;;;;5095044;28;20150;-80
2023/06/23 00:33:15;;;;;;;4.15;2.63;;;17.90;99.90;;;;;;5094391;28;19966;-79
2023/06/23 00:35:41;;;;;;;;;;;17.90;99.90;;;;;;5107531;28;20083;-80
2023/06/23 00:38:07;;;;;;;3.83;2.60;;;17.90;99.90;;;;;;5099315;28;19989;-80
2023/06/23 00:40:34;;;;;;;3.00;2.13;;;17.80;99.90;;;;;;5125090;27;20398;-80
2023/06/23 00:43:00;;;;;;;3.88;2.40;;;17.90;99.90;;;;;;5112158;27;20038;-80
2023/06/23 00:45:26;;;;;;;3.00;1.80;;;17.80;99.90;;;;;;5112126;27;20031;-79
2023/06/23 00:47:52;;;;;;;;;;;17.80;99.90;;;;;;5079509;28;20054;-80
2023/06/23 00:50:24;;;;;;;2.72;1.85;;;17.80;99.90;;;;;;5126107;27;20386;-80
2023/06/23 00:52:51;;;;;;;3.42;2.35;;;17.80;99.90;;;;;;5068402;27;20565;-83
2023/06/23 00:55:27;;;;;;;4.30;2.10;;;17.80;99.90;;;;;;5115523;27;20051;-83
2023/06/23 00:57:55;;;;;;;3.22;2.10;;;17.80;99.90;;;;;;5085334;28;20092;-83
2023/06/23 01:00:22;;;;;;;2.65;1.70;;;17.80;99.90;;;;;;5110314;27;20039;-83
2023/06/23 01:02:53;;;;;;;2.03;1.58;;;17.80;99.90;;;;;;5114615;27;20078;-83
2023/06/23 01:05:22;;;;;;;1.75;1.45;;;17.80;99.90;;;;;;5097865;27;20043;-83
2023/06/23 01:07:50;;;;;;;2.17;1.70;;;17.80;99.90;;;;;;5111791;28;20390;-84
2023/06/23 01:10:32;;;;;;;5.88;2.03;;;17.80;99.90;;;;;;5109302;27;20043;-83
2023/06/23 01:13:27;;;;;;;2.40;1.70;;;17.70;99.90;;;;;;5113008;27;20043;-84
2023/06/23 01:16:05;;;;;;;3.55;1.88;;;17.70;99.90;;;;;;5090392;27;20118;-84
2023/06/23 01:19:13;;;;;;;1.77;1.60;;;17.70;97.60;;;;;;5094391;27;20043;-84
2023/06/23 01:21:43;;;;;;;;;;;17.70;92.00;;;;;;5071984;27;20055;-83
2023/06/23 01:24:27;;;;;;;1.95;1.75;;;17.70;67.20;;;;;;5097344;27;19923;-83
2023/06/23 01:26:55;;;;;;;3.53;2.30;;;17.70;44.60;;;;;;5115014;27;20135;-83
2023/06/23 01:29:42;;;;;;;2.85;1.98;;;17.70;1.00;;;;;;5097790;27;20050;-83
2023/06/23 01:32:26;;;;;;;3.38;2.38;;;17.70;1.00;;;;;;5122068;27;20052;-83
2023/06/23 01:34:58;;;;;;;4.78;2.33;;;17.70;1.00;;;;;;5130808;27;20039;-82
2023/06/23 01:37:30;;;;;;;2.75;2.10;;;17.70;1.00;;;;;;5097630;27;20122;-83
2023/06/23 01:40:17;;;;;;;3.05;2.10;;;17.70;1.00;;;;;;5098641;27;20031;-83
2023/06/23 01:42:50;;;;;;;2.55;2.10;;;17.70;1.00;;;;;;5116130;27;20600;-83
2023/06/23 01:45:17;;;;;;;2.10;1.70;;;17.70;1.00;;;;;;5115366;27;20478;-82
2023/06/23 01:47:48;;;;;;;2.78;1.70;;;17.60;1.00;;;;;;5116067;27;20046;-83
2023/06/23 01:50:16;;;;;;;2.75;1.67;;;17.60;1.00;;;;;;5098911;27;20066;-83
2023/06/23 01:52:44;;;;;;;2.05;1.70;;;17.60;1.00;;;;;;5099386;27;20108;-83
2023/06/23 01:55:12;;;;;;;2.10;1.55;;;17.60;1.00;;;;;;5088824;27;20074;-83
2023/06/23 01:57:39;;;;;;;3.30;1.48;;;17.60;1.00;;;;;;5098824;27;20042;-82
2023/06/23 02:00:13;;;;;;;3.38;2.00;;;17.60;1.00;;;;;;5115653;27;20035;-82
2023/06/23 02:02:47;;;;;;;2.60;1.60;;;17.50;1.00;;;;;;5095805;28;20136;-82
2023/06/23 02:05:16;;;;;;;2.35;1.80;;;17.50;1.00;;;;;;5149720;27;20039;-83
2023/06/23 02:07:45;;;;;;;2.22;1.70;;;17.50;1.00;;;;;;5098645;27;20490;-83
2023/06/23 02:10:11;;;;;;;2.00;1.80;;;17.50;1.00;;;;;;5098990;27;20397;-82
2023/06/23 02:12:38;;;;;;;;;;;17.40;1.00;;;;;;5098765;28;20049;-82
2023/06/23 02:15:06;;;;;;;2.65;2.00;;;17.40;1.00;;;;;;5148244;27;19930;-83
2023/06/23 02:17:33;;;;;;;2.58;1.70;;;17.40;1.00;;;;;;5115322;27;20042;-83
2023/06/23 02:20:03;;;;;;;2.00;1.52;;;17.40;1.00;;;;;;5115282;27;20043;-82
2023/06/23 02:22:32;;;;;;;2.15;1.55;;;17.40;2.70;;;;;;5115060;27;20075;-82
2023/06/23 02:24:59;;;;;;;2.55;1.90;;;17.40;1.00;;;;;;5085307;28;20054;-83
2023/06/23 02:27:26;;;;;;;3.05;1.90;;;17.40;1.40;;;;;;5111011;27;20150;-82
2023/06/23 02:29:54;;;;;;;1.90;1.70;;;17.40;1.00;;;;;;5081263;27;20039;-82
2023/06/23 02:32:20;;;;;;;2.20;1.67;;;17.40;1.00;;;;;;5113929;27;20561;-82
2023/06/23 02:34:49;;;;;;;;;;;17.30;1.00;;;;;;5098043;27;20035;-82
2023/06/23 02:37:18;;;;;;;2.42;1.70;;;17.40;1.00;;;;;;5119298;27;19927;-82
2023/06/23 02:39:48;;;;;;;2.67;1.92;;;17.40;1.00;;;;;;5096316;27;20132;-83
2023/06/23 02:42:18;;;;;;;2.20;1.58;;;17.30;1.00;;;;;;5116547;27;20096;-80
2023/06/23 02:44:55;;;;;;;3.63;1.85;;;17.30;99.90;;;;;;5112568;27;20039;-79
2023/06/23 02:47:23;;;;;;;2.15;1.70;;;17.30;99.90;;;;;;5117496;27;20043;-80
2023/06/23 02:49:51;;;;;;;1.38;1.20;;;17.30;99.90;;;;;;5114972;27;20038;-82
2023/06/23 02:52:20;;;;;;;2.38;1.50;;;17.30;99.90;;;;;;5114891;27;20043;-82
2023/06/23 02:54:49;;;;;;;2.35;1.70;;;17.30;1.00;;;;;;5114286;27;20063;-82
2023/06/23 02:57:18;;;;;;;1.88;1.60;;;17.20;1.00;;;;;;5097794;27;20043;-82
2023/06/23 02:59:44;;;;;;;2.63;1.90;;;17.20;22.20;;;;;;5114815;27;20047;-82
2023/06/23 03:02:13;;;;;;;1.92;1.25;;;17.20;65.40;;;;;;5112849;27;20046;-82
2023/06/23 03:04:41;;;;;;;1.90;1.60;;;17.10;94.40;;;;;;5114406;27;20043;-82
2023/06/23 03:07:08;;;;;;;2.17;1.50;;;17.10;99.90;;;;;;5114468;27;20050;-82
2023/06/23 03:09:34;;;;;;;2.22;1.55;;;17.10;99.90;;;;;;5115021;27;20083;-81
2023/06/23 03:11:59;;;;;;;;;;;17.00;99.90;;;;;;5098183;27;20057;-81
2023/06/23 03:14:26;;;;;;;1.88;1.63;;;17.00;99.90;;;;;;5080388;27;20330;-81
2023/06/23 03:17:00;;;;;;;3.50;1.38;;;17.00;99.90;;;;;;5114247;27;20513;-81
2023/06/23 03:19:33;;;;;;;1.92;1.40;;;16.90;99.90;;;;;;5112284;27;20035;-81
2023/06/23 03:22:04;;;;;;;2.92;1.80;;;16.90;99.90;;;;;;5114207;27;20383;-81
2023/06/23 03:24:33;;;;;;;2.13;1.40;;;16.80;99.90;;;;;;5113891;27;20042;-81
2023/06/23 03:27:02;;;;;;;2.53;1.88;;;16.80;99.90;;;;;;5096840;27;20058;-81
2023/06/23 03:29:31;;;;;;;2.78;1.45;;;16.80;99.90;;;;;;5114075;27;20082;-82
2023/06/23 03:32:02;;;;;;;2.35;1.50;;;16.80;99.90;;;;;;5096418;27;20031;-81
2023/06/23 03:34:39;;;;;;;2.38;1.40;;;16.80;99.90;;;;;;5114081;27;20043;-82
2023/06/23 03:37:07;;;;;;;2.28;1.67;;;16.70;99.90;;;;;;5103168;27;20047;-82
2023/06/23 03:39:38;;;;;;;1.45;1.23;;;16.70;99.90;;;;;;5113658;27;20046;-82
2023/06/23 03:42:06;;;;;;;2.35;1.40;;;16.60;99.90;;;;;;5113331;27;20041;-82
2023/06/23 03:44:46;;;;;;;1.63;1.30;;;16.60;99.90;;;;;;5116470;27;20038;-83
2023/06/23 03:47:18;;;;;;;1.20;1.00;;;16.60;99.90;;;;;;5112361;27;20058;-83
2023/06/23 03:49:55;;;;;;;1.30;1.17;;;16.50;99.90;;;;;;5102819;27;20047;-82
2023/06/23 03:52:23;;;;;;;1.60;1.02;;;16.50;99.90;;;;;;5099470;27;20168;-82
2023/06/23 03:54:52;;;;;;;1.42;1.23;;;16.50;99.90;;;;;;5101062;28;20491;-82
2023/06/23 03:57:21;;;;;;;2.45;1.60;;;16.40;99.90;;;;;;5090143;28;20040;-82
2023/06/23 03:59:49;;;;;;;1.10;1.00;;;16.40;99.90;;;;;;5089326;28;20036;-82
2023/06/23 04:02:17;;;;;;;1.33;1.20;;;16.40;99.90;;;;;;5072952;28;20442;-83
2023/06/23 04:04:44;;;;;;;0.88;0.88;;;16.40;99.90;;;;;;5089767;28;20039;-82
2023/06/23 04:07:12;;;;;;;1.13;0.80;;;16.30;99.90;;;;;;5073221;28;20441;-82
2023/06/23 04:09:42;;;;;;;1.40;1.00;;;16.30;99.90;;;;;;5088947;28;20047;-82
2023/06/23 04:12:14;;;;;;;1.10;1.00;;;16.20;99.90;;;;;;5079915;28;20521;-82
2023/06/23 04:14:42;;;;;;;1.20;1.10;;;16.30;99.90;;;;;;5069755;28;20073;-82
2023/06/23 04:17:12;;;;;;;1.17;0.90;;;16.30;99.90;;;;;;5073451;28;20040;-82
2023/06/23 04:19:41;;;;;;;1.17;1.00;;;16.20;99.90;;;;;;5052418;28;20036;-82
2023/06/23 04:22:08;;;;;;;1.40;1.23;;;16.20;99.90;;;;;;5073004;28;20048;-82
2023/06/23 04:24:37;;;;;;;1.15;1.00;;;16.20;99.90;;;;;;5072063;28;20098;-82
2023/06/23 04:27:06;;;;;;;0.80;0.80;;;16.20;99.90;;;;;;5072595;28;20044;-82
2023/06/23 04:29:36;;;;;;;1.23;0.95;;;16.20;99.90;;;;;;5072375;28;20046;-82
2023/06/23 04:32:02;;;;;;;0.70;0.70;;;16.20;99.90;;;;;;5072989;28;20104;-82
2023/06/23 04:34:28;;;;;;;1.40;1.17;;;16.20;99.90;;;;;;5088982;28;20522;-83
2023/06/23 04:37:23;;;;;;;1.92;1.10;;;16.30;99.90;;;;;;5050411;28;20105;-83
2023/06/23 04:40:11;;;;;;;2.75;1.33;;;16.30;99.90;;;;;;5080480;28;20461;-81
2023/06/23 04:42:52;;;;;;;2.10;1.60;;;16.30;99.90;;;;;;5081026;28;20094;-82
2023/06/23 04:45:22;;;;;;;3.35;1.80;;;16.30;99.90;;;;;;5079605;28;20040;-82
2023/06/23 04:47:54;;;;;;;1.75;1.30;;;16.40;99.90;;;;;;5065264;28;20072;-83
2023/06/23 04:50:21;;;;;;;2.78;1.80;;;16.40;99.90;;;;;;5088052;28;20036;-81
2023/06/23 04:52:52;;;;;;;2.38;1.48;;;16.40;99.90;;;;;;5080214;28;20054;-82
2023/06/23 04:55:19;;;;;;;1.75;1.30;;;16.50;99.90;;;;;;5076990;28;20504;-82
2023/06/23 04:57:47;;;;;;;1.40;1.30;;;16.50;99.90;;;;;;5051955;28;20050;-83
2023/06/23 05:00:20;;;;;;;3.50;1.60;;;16.50;99.90;;;;;;5068777;28;20048;-82
2023/06/23 05:02:48;;;;;;;1.80;1.50;;;16.50;99.90;;;;;;5071467;28;20032;-82
2023/06/23 05:05:18;;;;;;;2.00;1.30;;;16.50;99.90;;;;;;5089355;28;20048;-83
2023/06/23 05:07:45;;;;;;;2.28;1.65;;;16.60;99.90;;;;;;5056220;28;20044;-82
2023/06/23 05:10:13;;;;;;;1.38;1.27;;;16.70;99.90;;;;;;5084153;28;20063;-82
2023/06/23 05:12:41;;;;;;;2.08;1.60;;;16.70;99.90;;;;;;5071381;28;20507;-81
2023/06/23 05:15:08;;;;;;;1.42;1.33;;;16.80;99.90;;;;;;5087011;28;20053;-81
2023/06/23 05:17:37;;;;;;;2.70;1.60;;;16.80;99.90;;;;;;5070864;28;20046;-81
2023/06/23 05:20:06;;;;;;;2.38;1.45;;;16.80;99.90;;;;;;5066345;28;20044;-81
2023/06/23 05:22:34;;;;;;;2.10;1.60;;;16.90;99.90;;;;;;5089091;28;20044;-81
2023/06/23 05:25:04;;;;;;;2.75;2.08;;;16.90;99.90;;;;;;5071675;28;20097;-81
2023/06/23 05:27:32;;;;;;;2.25;1.65;;;16.90;99.90;;;;;;5066666;28;20040;-81
2023/06/23 05:30:00;;;;;;;2.97;2.65;;;16.90;99.90;;;;;;5091436;28;20131;-81
2023/06/23 05:32:30;;;;;;;2.90;2.00;;;16.90;99.90;;;;;;5074906;28;20507;-80
2023/06/23 05:35:01;;;;;;;3.33;2.55;;;16.90;99.90;;;;;;5071405;28;20037;-80
2023/06/23 05:37:31;;;;;;;2.47;2.10;;;16.90;99.90;;;;;;5082164;28;20090;-78
2023/06/23 05:40:00;;;;;;;4.22;3.08;;;16.80;99.90;;;;;;5092286;28;20450;-81
2023/06/23 05:42:29;;;;;;;4.18;2.85;;;16.80;99.90;;;;;;5076076;28;20086;-81
2023/06/23 05:44:55;;;;;;;4.00;2.05;;;16.80;99.90;;;;;;5075140;28;20532;-82
2023/06/23 05:47:24;;;;;;;;;;;16.80;99.90;;;;;;5070488;28;20069;-81
2023/06/23 05:49:53;;;;;;;5.07;3.20;;;16.80;99.90;;;;;;5091813;28;19973;-82
2023/06/23 05:52:21;;;;;;;4.25;2.83;;;16.90;99.90;;;;;;5088966;28;20470;-80
2023/06/23 05:54:49;;;;;;;3.53;2.83;;;16.80;99.90;;;;;;5089840;28;20147;-80
2023/06/23 05:57:24;;;;;;;3.75;2.67;;;16.80;99.90;;;;;;5087849;28;20036;-79
2023/06/23 06:00:01;;;;;;;2.50;2.20;;;16.90;99.90;;;;;;5103023;28;20127;-79
2023/06/23 06:02:28;;;;;;;;;;;17.00;99.90;;;;;;5089700;28;20488;-81
2023/06/23 06:04:57;;;;;;;4.20;2.20;;;17.10;99.90;;;;;;5087431;28;19926;-82
2023/06/23 06:07:24;;;;;;;3.45;2.70;;;17.10;99.90;;;;;;5090290;28;20047;-81
2023/06/23 06:09:52;;;;;;;2.90;2.47;;;17.20;99.90;;;;;;5089148;28;20458;-81
2023/06/23 06:12:18;;;;;;;4.10;2.83;;;17.30;99.90;;;;;;5074807;28;20044;-80
2023/06/23 06:14:45;;;;;;;;;;;17.40;99.90;;;;;;5074050;28;20526;-78
2023/06/23 06:17:11;;;;;;;;;;;17.60;99.90;;;;;;5069474;28;20615;-79
2023/06/23 06:19:40;;;;;;;4.72;3.15;;;17.80;99.90;;;;;;5056514;28;20003;-78
2023/06/23 06:22:14;;;;;;;3.42;2.63;;;17.90;99.90;;;;;;5089709;28;20445;-80
2023/06/23 06:24:40;;;;;;;2.70;2.50;;;18.00;99.90;;;;;;5089739;28;20040;-79
2023/06/23 06:27:08;;;;;;;2.45;2.22;;;18.10;99.90;;;;;;5069093;28;20188;-80
2023/06/23 06:29:36;;;;;;;3.78;2.33;;;18.20;99.90;;;;;;5072178;28;20393;-78
2023/06/23 06:32:05;;;;;;;3.53;2.22;;;18.30;99.90;;;;;;5073296;28;20044;-79
2023/06/23 06:34:32;;;;;;;2.55;2.00;;;18.40;99.90;;;;;;5070281;28;20168;-81
2023/06/23 06:37:01;;;;;;;3.15;2.40;;;18.40;99.90;;;;;;5070744;28;20040;-82
2023/06/23 06:39:29;;;;;;;4.22;2.75;;;18.50;99.90;;;;;;5071028;28;20027;-81
2023/06/23 06:41:57;;;;;;;4.10;3.17;;;18.60;99.90;;;;;;5090259;28;20119;-79
2023/06/23 06:44:23;;;;;;;3.85;2.50;;;18.70;99.90;;;;;;5089152;28;20527;-78
2023/06/23 06:46:49;;;;;;;;;;;18.80;50.70;;;;;;5073212;28;20043;-79
2023/06/23 06:49:17;;;;;;;3.70;2.67;;;19.00;99.90;;;;;;5052524;28;19927;-81
2023/06/23 06:51:44;;;;;;;3.20;2.72;;;19.10;1.00;;;;;;5053891;28;20087;-79
2023/06/23 06:54:10;;;;;;;3.65;2.88;;;19.20;95.70;;;;;;5072876;27;20463;-74
2023/06/23 06:56:36;;;;;;;;;;;19.30;1.00;;;;;;5107498;27;20046;-75
2023/06/23 06:59:03;;;;;;;3.95;2.95;;;19.30;99.90;;;;;;5094406;27;19923;-76
2023/06/23 07:01:29;;;;;;;3.95;2.60;;;19.40;82.70;;;;;;5109875;27;20046;-78
2023/06/23 07:03:56;;;;;;;2.60;2.20;;;19.60;99.90;;;;;;5132614;27;20386;-78
2023/06/23 07:06:22;;;;;;;3.92;2.13;;;19.70;99.90;;;;;;5114027;27;20047;-77
2023/06/23 07:08:48;;;;;;;;;;;19.80;99.90;;;;;;5097024;27;20640;-78
2023/06/23 07:11:14;;;;;;;4.53;2.63;;;19.90;99.90;;;;;;5109823;27;19926;-78
2023/06/23 07:13:39;;;;;;;;;;;19.90;12.10;;;;;;5078818;27;20393;-79
2023/06/23 07:16:05;;;;;;;2.88;2.40;;;20.00;99.90;;;;;;5076699;27;20256;-79
2023/06/23 07:18:31;;;;;;;;;;;20.10;99.90;;;;;;5113387;27;20047;-77
2023/06/23 07:20:57;;;;;;;4.05;2.75;;;20.10;14.70;;;;;;5108775;27;20386;-79
2023/06/23 07:23:23;;;;;;;3.50;2.53;;;20.20;30.80;;;;;;5112895;27;20050;-78
2023/06/23 07:25:49;;;;;;;2.65;2.05;;;20.20;1.00;;;;;;5098166;27;20502;-79
2023/06/23 07:28:14;;;;;;;;;;;20.30;99.90;;;;;;5079287;27;20105;-79
2023/06/23 07:30:40;;;;;;;4.03;2.15;;;20.30;99.90;;;;;;5132358;27;19923;-79
2023/06/23 07:33:06;;;;;;;;;;;20.50;99.90;;;;;;5082567;27;20039;-79
2023/06/23 07:35:32;;;;;;;3.17;2.42;;;20.50;99.90;;;;;;5111532;27;19926;-78
2023/06/23 07:37:58;;;;;;;2.95;2.30;;;20.60;99.90;;;;;;5095476;27;20043;-77
2023/06/23 07:40:23;;;;;;;3.00;2.20;;;20.60;99.90;;;;;;5079282;27;20054;-79
2023/06/23 07:42:49;;;;;;;4.07;2.30;;;20.80;99.90;;;;;;5113149;27;20066;-78
2023/06/23 07:45:15;;;;;;;3.22;2.42;;;20.80;99.90;;;;;;5146880;27;20043;-79
2023/06/23 07:47:40;;;;;;;;;;;20.90;69.30;;;;;;5114019;27;20049;-81
2023/06/23 07:50:06;;;;;;;3.75;2.22;;;21.00;82.60;;;;;;5105203;27;20036;-80
2023/06/23 07:52:32;;;;;;;3.50;2.28;;;21.10;34.90;;;;;;5090266;27;20042;-79
2023/06/23 07:54:58;;;;;;;2.30;1.80;;;21.10;1.00;;;;;;5079206;27;20114;-77
2023/06/23 07:57:25;;;;;;;;;;;21.20;15.10;;;;;;5096114;27;20054;-79
2023/06/23 07:59:50;;;;;;;2.40;1.60;;;21.30;1.00;;;;;;5112587;27;19919;-79
2023/06/23 08:02:17;;;;;;;4.20;2.20;;;21.50;91.10;;;;;;5101224;27;20642;-79
2023/06/23 08:04:42;;;;;;;3.38;2.38;;;21.60;37.20;;;;;;5112685;28;20067;-77
2023/06/23 08:07:08;;;;;;;3.08;2.08;;;21.60;1.00;;;;;;5082775;28;20043;-78
2023/06/23 08:09:34;;;;;;;2.00;1.40;;;21.80;58.10;;;;;;5113827;27;20034;-78
2023/06/23 08:12:00;;;;;;;2.35;1.80;;;21.80;72.80;;;;;;5111792;27;20053;-79
2023/06/23 08:14:26;;;;;;;2.88;1.80;;;21.90;70.50;;;;;;5059335;28;20051;-77
2023/06/23 08:16:51;;;;;;;3.35;2.70;;;22.00;99.90;;;;;;5114507;27;20042;-78
2023/06/23 08:19:21;;;;;;;2.97;2.00;;;21.90;99.90;;;;;;5075926;28;20043;-79
2023/06/23 08:21:51;;;;;;;3.03;1.90;;;22.00;99.90;;;;;;5087958;28;20044;-78
2023/06/23 08:24:17;;;;;;;7.88;2.83;;;22.20;99.90;;;;;;5092378;28;20086;-76
2023/06/23 08:26:44;;;;;;;2.35;1.98;;;21.90;99.90;;;;;;5106732;28;20079;-77
2023/06/23 08:29:10;;;;;;;4.18;2.20;;;22.00;84.20;;;;;;5100523;28;20422;-77
2023/06/23 08:31:36;;;;;;;3.67;2.45;;;22.00;99.90;;;;;;5099247;27;20126;-77
2023/06/23 08:34:02;;;;;;;3.15;2.40;;;21.90;99.90;;;;;;5100217;28;20712;-77
2023/06/23 08:36:27;;;;;;;3.40;2.33;;;22.00;99.90;;;;;;5095920;28;20047;-77
2023/06/23 08:38:53;;;;;;;3.92;2.20;;;22.00;99.90;;;;;;5131328;27;20036;-77
2023/06/23 08:41:24;;;;;;;3.28;2.60;;;22.20;99.90;;;;;;5077375;28;20067;-77
2023/06/23 08:43:52;;;;;;;3.45;2.60;;;22.20;99.90;;;;;;5107789;28;20047;-80
2023/06/23 08:46:21;;;;;;;3.35;2.38;;;22.10;99.90;;;;;;5113235;28;20039;-80
2023/06/23 08:48:51;;;;;;;2.10;1.73;;;22.10;99.90;;;;;;5113618;28;20054;-80
2023/06/23 08:51:17;;;;;;;4.25;2.35;;;22.20;99.90;;;;;;5096739;28;20499;-79
2023/06/23 08:53:43;;;;;;;2.25;2.00;;;22.10;99.90;;;;;;5096986;28;20489;-79
2023/06/23 08:56:10;;;;;;;2.60;2.30;;;22.20;91.10;;;;;;5059431;28;20056;-77
2023/06/23 08:58:35;;;;;;;3.08;2.40;;;22.10;74.00;;;;;;5097999;28;20040;-80
2023/06/23 09:01:01;;;;;;;2.83;1.92;;;22.30;99.90;;;;;;5090205;28;20047;-80
2023/06/23 09:03:27;;;;;;;2.60;1.80;;;22.40;99.90;;;;;;5093663;28;20044;-80
2023/06/23 09:05:53;;;;;;;3.67;2.40;;;22.50;33.00;;;;;;5094290;28;20131;-81
2023/06/23 09:08:19;;;;;;;2.97;2.05;;;22.50;1.00;;;;;;5077262;28;20043;-81
2023/06/23 09:10:45;;;;;;;2.63;1.92;;;22.60;92.50;;;;;;5094217;28;20112;-77
2023/06/23 09:13:10;;;;;;;3.20;2.05;;;22.80;99.90;;;;;;5091388;28;20045;-79
2023/06/23 09:15:37;;;;;;;2.35;1.70;;;22.60;99.90;;;;;;5096733;28;20494;-79
2023/06/23 09:18:03;;;;;;;2.80;2.13;;;22.80;99.90;;;;;;5090808;28;20044;-77
2023/06/23 09:20:33;;;;;;;1.52;1.42;;;22.70;99.90;;;;;;5096786;28;20039;-78
2023/06/23 09:22:59;;;;;;;3.72;2.00;;;22.90;99.90;;;;;;5114277;28;20036;-79
2023/06/23 09:25:42;;;;;;;3.03;2.13;;;23.00;99.90;;;;;;5079485;28;20071;-79
2023/06/23 09:28:26;;;;;;;2.30;2.10;;;23.00;99.90;;;;;;5113683;28;20089;-80
2023/06/23 09:30:53;;;;;;;2.17;1.80;;;22.90;99.90;;;;;;5114505;28;20493;-80
2023/06/23 09:33:19;;;;;;;2.80;1.80;;;23.00;99.90;;;;;;5097754;28;20703;-79
2023/06/23 09:35:56;;;;;;;2.33;1.60;;;23.20;99.90;;;;;;5114048;28;20043;-79
2023/06/23 09:38:26;;;;;;;;;;;23.40;99.90;;;;;;5115214;28;20066;-80
2023/06/23 09:41:12;;;;;;;1.92;1.40;;;23.60;99.90;;;;;;5114124;28;20374;-79
2023/06/23 09:43:46;;;;;;;3.25;2.20;;;23.80;41.90;;;;;;5114419;28;20692;-76
2023/06/23 09:46:18;;;;;;;2.13;1.90;;;23.70;1.00;;;;;;5113878;28;20043;-78
2023/06/23 09:48:45;;;;;;;2.53;2.03;;;23.90;99.90;;;;;;5119435;28;20054;-77
2023/06/23 09:51:12;;;;;;;2.45;1.80;;;23.60;1.00;;;;;;5117502;28;20042;-77
2023/06/23 09:53:40;;;;;;;2.80;2.40;;;23.80;1.00;;;;;;5113868;28;20047;-74
2023/06/23 09:56:12;;;;;;;2.08;1.67;;;23.50;1.00;;;;;;5081096;28;20126;-76
2023/06/23 09:58:40;;;;;;;2.50;1.70;;;23.80;1.00;;;;;;5084507;28;20039;-79
2023/06/23 10:01:08;;;;;;;2.72;1.80;;;24.00;1.00;;;;;;5089544;28;20050;-79
2023/06/23 10:03:51;;;;;;;2.58;2.10;;;24.10;1.00;;;;;;5079389;28;20085;-79
2023/06/23 10:06:26;;;;;;;1.92;1.73;;;24.00;1.00;;;;;;5112435;28;20048;-77
2023/06/23 10:08:57;;;;;;;3.28;2.17;;;24.00;99.90;;;;;;5087384;28;20047;-80
2023/06/23 10:11:30;;;;;;;3.42;2.33;;;24.00;1.00;;;;;;5071375;28;20036;-79
2023/06/23 10:13:59;;;;;;;3.15;2.00;;;23.80;1.00;;;;;;5070546;28;20082;-80
2023/06/23 10:16:25;;;;;;;2.55;2.25;;;23.60;99.90;;;;;;5064792;28;20048;-79
2023/06/23 10:18:52;;;;;;;3.05;2.05;;;23.10;99.90;;;;;;5062321;28;20499;-79
2023/06/23 10:21:21;;;;;;;2.75;2.30;;;23.40;99.90;;;;;;5074217;28;20035;-81
2023/06/23 10:23:48;;;;;;;3.83;2.75;;;23.60;83.70;;;;;;5070841;28;20127;-78
2023/06/23 10:26:16;;;;;;;5.20;2.50;;;23.70;1.00;;;;;;5077447;28;20475;-79
2023/06/23 10:28:48;;;;;;;3.00;2.10;;;23.70;1.00;;;;;;5092306;28;20044;-79
2023/06/23 10:31:15;;;;;;;2.45;2.10;;;24.00;11.40;;;;;;5063580;28;20062;-79
2023/06/23 10:33:42;;;;;;;2.53;2.17;;;24.30;23.10;;;;;;5079814;28;20223;-78
2023/06/23 10:36:12;;;;;;;2.33;1.90;;;24.40;99.90;;;;;;5085407;28;20399;-80
2023/06/23 10:38:43;;;;;;;2.50;2.15;;;24.30;99.90;;;;;;5079390;28;20180;-80
2023/06/23 10:41:11;;;;;;;2.80;2.10;;;24.40;99.90;;;;;;5071579;28;20117;-79
2023/06/23 10:43:41;;;;;;;2.97;2.45;;;24.40;1.00;;;;;;5073900;28;20036;-79
2023/06/23 10:46:07;;;;;;;2.40;1.90;;;24.40;1.00;;;;;;5101550;28;20055;-80
2023/06/23 10:48:33;;;;;;;2.88;2.60;;;24.70;1.00;;;;;;5081838;28;20032;-79
2023/06/23 10:50:59;;;;;;;4.05;2.40;;;24.10;99.90;;;;;;5100043;28;20062;-79
2023/06/23 10:53:30;;;;;;;2.92;2.63;;;24.20;99.90;;;;;;5099712;28;20121;-77
2023/06/23 10:55:56;;;;;;;4.65;2.63;;;24.30;1.00;;;;;;5089365;28;20052;-79
2023/06/23 10:58:23;;;;;;;3.63;2.90;;;24.50;1.00;;;;;;5071441;28;20041;-79
2023/06/23 11:00:55;;;;;;;3.95;2.75;;;24.50;1.00;;;;;;5090674;28;20090;-79
2023/06/23 11:03:31;;;;;;;3.65;2.80;;;24.50;1.00;;;;;;5070028;28;20062;-80
2023/06/23 11:05:58;;;;;;;;;;;24.60;1.00;;;;;;5122811;27;20055;-82
2023/06/23 11:08:32;;;;;;;3.38;2.65;;;24.50;1.00;;;;;;5125920;27;20236;-80
2023/06/23 11:11:03;;;;;;;3.67;2.90;;;24.30;1.00;;;;;;5074032;28;20044;-81
2023/06/23 11:13:46;;;;;;;4.20;2.40;;;23.90;1.00;;;;;;5067960;28;20036;-81
2023/06/23 11:16:28;;;;;;;4.13;3.10;;;23.90;1.00;;;;;;5071314;28;20053;-80
2023/06/23 11:18:58;;;;;;;4.55;3.38;;;23.90;99.90;;;;;;5072296;28;20050;-82
2023/06/23 11:21:30;;;;;;;6.13;3.78;;;23.80;99.90;;;;;;5074194;28;20044;-82
2023/06/23 11:24:16;;;;;;;3.50;3.10;;;23.90;99.90;;;;;;5078160;28;20055;-82
2023/06/23 11:26:49;;;;;;;3.97;3.15;;;24.20;99.90;;;;;;5078145;28;20043;-81
2023/06/23 11:29:24;;;;;;;4.72;3.47;;;24.10;87.40;;;;;;5071858;28;20058;-81
2023/06/23 11:32:11;;;;;;;4.40;3.67;;;24.10;99.90;;;;;;5080715;28;20032;-81
2023/06/23 11:34:56;;;;;;;4.07;3.55;;;24.20;99.90;;;;;;5089566;28;20055;-81
2023/06/23 11:37:25;;;;;;;4.22;3.78;;;23.90;99.90;;;;;;5073432;28;20040;-81
2023/06/23 11:39:55;;;;;;;4.85;3.65;;;23.90;99.90;;;;;;5073865;28;20086;-83
2023/06/23 11:42:22;;;;;;;5.45;3.72;;;24.00;99.90;;;;;;5094208;28;20525;-81
2023/06/23 11:44:51;;;;;;;3.75;3.17;;;24.00;99.90;;;;;;5081423;28;20536;-81
2023/06/23 11:47:24;;;;;;;5.18;3.83;;;24.30;88.20;;;;;;5103119;28;20035;-82
2023/06/23 11:49:51;;;;;;;3.92;3.53;;;24.10;41.10;;;;;;5100869;28;20042;-81
2023/06/23 11:52:17;;;;;;;4.50;3.20;;;24.10;1.00;;;;;;5099330;28;20050;-81
2023/06/23 11:54:45;;;;;;;5.60;4.22;;;24.30;1.00;;;;;;5098285;27;20096;-82
2023/06/23 11:57:11;;;;;;;3.78;3.38;;;24.30;1.00;;;;;;5113906;27;20047;-82
2023/06/23 11:59:38;;;;;;;4.78;3.60;;;24.30;1.00;;;;;;5115619;27;20039;-81
2023/06/23 12:02:05;;;;;;;4.38;3.67;;;24.30;1.00;;;;;;5115199;27;20537;-81
2023/06/23 12:04:32;;;;;;;5.22;3.13;;;24.30;99.90;;;;;;5122458;27;20030;-82
2023/06/23 12:07:03;;;;;;;4.03;2.90;;;24.40;99.90;;;;;;5119607;27;20038;-82
2023/06/23 12:09:30;;;;;;;5.07;2.80;;;24.40;99.90;;;;;;5089488;27;20039;-82
2023/06/23 12:11:58;;;;;;;4.28;3.17;;;24.50;1.00;;;;;;5091014;27;20027;-80
2023/06/23 12:14:28;;;;;;;4.70;3.33;;;24.30;99.90;;;;;;5124701;27;20039;-85
2023/06/23 12:17:03;;;;;;;3.13;2.47;;;24.20;99.90;;;;;;5100091;27;20042;-84
2023/06/23 12:19:31;;;;;;;3.75;2.63;;;24.60;99.90;;;;;;5108562;27;20042;-85
2023/06/23 12:21:57;;;;;;;3.25;2.50;;;24.70;99.90;;;;;;5141567;27;20038;-84
2023/06/23 12:24:23;;;;;;;3.80;2.40;;;24.60;99.90;;;;;;5107070;27;20035;-84
2023/06/23 12:26:51;;;;;;;2.70;2.38;;;24.60;99.90;;;;;;5108578;27;20034;-85
2023/06/23 12:29:18;;;;;;;3.78;2.45;;;24.50;99.90;;;;;;5098847;28;20100;-78
2023/06/23 12:31:53;;;;;;;3.55;2.88;;;24.70;99.90;;;;;;5104870;27;20139;-81
2023/06/23 12:34:19;;;;;;;3.58;2.42;;;24.50;99.90;;;;;;5094538;28;20406;-81
2023/06/23 12:36:48;;;;;;;3.13;2.28;;;24.70;99.90;;;;;;5081006;27;20031;-81
2023/06/23 12:39:15;;;;;;;3.80;2.20;;;24.80;54.20;;;;;;5096584;27;20038;-78
2023/06/23 12:41:48;;;;;;;2.42;2.13;;;24.90;99.90;;;;;;5123917;27;20069;-80
2023/06/23 12:44:14;;;;;;;2.55;2.05;;;24.90;99.90;;;;;;5100310;27;20126;-78
2023/06/23 12:46:41;;;;;;;2.55;2.05;;;25.10;1.00;;;;;;5109039;27;20071;-76
2023/06/23 12:49:10;;;;;;;2.85;1.92;;;24.80;1.00;;;;;;5150033;27;20624;-74
2023/06/23 12:51:38;;;;;;;3.08;1.88;;;25.10;1.00;;;;;;5099097;27;20103;-77
2023/06/23 12:54:04;;;;;;;3.75;1.90;;;25.00;99.90;;;;;;5112534;27;20121;-75
2023/06/23 12:56:30;;;;;;;4.22;1.77;;;24.80;99.90;;;;;;5117235;27;20513;-76
2023/06/23 12:58:56;;;;;;;2.50;1.63;;;24.90;99.90;;;;;;5151512;27;20353;-77
2023/06/23 13:01:22;;;;;;;1.80;1.40;;;24.90;99.90;;;;;;5116622;27;20474;-75
2023/06/23 13:03:48;;;;;;;2.00;1.58;;;25.10;99.90;;;;;;5134171;27;20058;-78
2023/06/23 13:06:14;;;;;;;3.25;1.77;;;25.10;99.90;;;;;;5099787;27;20253;-79